sensor_id;sensor_type;location;lat;lon;timestamp;pressure;altitude;pressure_sealevel;temperature;humidity
27304;BME280;14791;52.392;13.092;2023-03-03T00:01:34;101901.14;;;7.09;46.57
27304;BME280;14791;52.392;13.092;2023-03-03T00:04:03;101907.81;;;7.08;46.60
27304;BME280;14791;52.392;13.092;2023-03-03T00:06:32;101902.16;;;7.03;46.60
27304;BME280;14791;52.392;13.092;2023-03-03T00:09:01;101907.97;;;7.01;46.57
27304;BME280;14791;52.392;13.092;2023-03-03T00:11:31;101911.66;;;6.97;46.47
27304;BME280;14791;52.392;13.092;2023-03-03T00:13:59;101910.48;;;6.91;46.32
27304;BME280;14791;52.392;13.092;2023-03-03T00:16:36;101913.38;;;6.82;46.25
27304;BME280;14791;52.392;13.092;2023-03-03T00:19:14;101918.54;;;6.72;46.34
27304;BME280;14791;52.392;13.092;2023-03-03T00:21:48;101924.18;;;6.59;46.36
27304;BME280;14791;52.392;13.092;2023-03-03T00:24:23;101931.54;;;6.48;46.48
27304;BME280;14791;52.392;13.092;2023-03-03T00:26:55;101942.38;;;6.39;46.61
27304;BME280;14791;52.392;13.092;2023-03-03T00:29:36;101939.03;;;6.32;46.71
27304;BME280;14791;52.392;13.092;2023-03-03T00:34:51;101935.33;;;6.20;47.11
27304;BME280;14791;52.392;13.092;2023-03-03T00:37:32;101936.28;;;6.17;47.32
27304;BME280;14791;52.392;13.092;2023-03-03T00:42:55;101924.20;;;6.24;47.50
27304;BME280;14791;52.392;13.092;2023-03-03T00:45:31;101915.75;;;6.26;47.44
27304;BME280;14791;52.392;13.092;2023-03-03T00:50:51;101905.52;;;6.28;47.13
27304;BME280;14791;52.392;13.092;2023-03-03T00:53:22;101909.12;;;6.26;46.93
27304;BME280;14791;52.392;13.092;2023-03-03T00:55:52;101903.06;;;6.21;46.94
27304;BME280;14791;52.392;13.092;2023-03-03T00:58:22;101915.98;;;6.16;46.98
27304;BME280;14791;52.392;13.092;2023-03-03T01:00:53;101911.62;;;6.14;46.93
27304;BME280;14791;52.392;13.092;2023-03-03T01:03:26;101898.92;;;6.09;46.87
27304;BME280;14791;52.392;13.092;2023-03-03T01:05:55;101898.11;;;6.05;46.93
27304;BME280;14791;52.392;13.092;2023-03-03T01:08:24;101905.31;;;6.00;46.90
27304;BME280;14791;52.392;13.092;2023-03-03T01:10:55;101902.26;;;5.99;46.86
27304;BME280;14791;52.392;13.092;2023-03-03T01:13:30;101902.83;;;5.94;46.87
27304;BME280;14791;52.392;13.092;2023-03-03T01:16:00;101896.27;;;5.89;46.94
27304;BME280;14791;52.392;13.092;2023-03-03T01:18:29;101906.55;;;5.84;46.98
27304;BME280;14791;52.392;13.092;2023-03-03T01:20:59;101909.68;;;5.82;47.01
27304;BME280;14791;52.392;13.092;2023-03-03T01:23:28;101905.78;;;5.79;47.02
27304;BME280;14791;52.392;13.092;2023-03-03T01:25:57;101903.13;;;5.79;47.14
27304;BME280;14791;52.392;13.092;2023-03-03T01:28:27;101892.53;;;5.79;47.14
27304;BME280;14791;52.392;13.092;2023-03-03T01:31:00;101893.37;;;5.81;47.30
27304;BME280;14791;52.392;13.092;2023-03-03T01:33:31;101898.19;;;5.83;47.39
27304;BME280;14791;52.392;13.092;2023-03-03T01:36:02;101890.59;;;5.87;47.33
27304;BME280;14791;52.392;13.092;2023-03-03T01:38:34;101887.41;;;5.89;47.25
27304;BME280;14791;52.392;13.092;2023-03-03T01:41:02;101893.08;;;5.94;47.20
27304;BME280;14791;52.392;13.092;2023-03-03T01:43:33;101889.94;;;5.96;47.15
27304;BME280;14791;52.392;13.092;2023-03-03T01:48:39;101884.58;;;5.98;47.08
27304;BME280;14791;52.392;13.092;2023-03-03T01:54:03;101870.05;;;5.96;47.14
27304;BME280;14791;52.392;13.092;2023-03-03T01:56:30;101864.77;;;5.95;47.21
27304;BME280;14791;52.392;13.092;2023-03-03T01:59:04;101863.85;;;5.96;47.24
27304;BME280;14791;52.392;13.092;2023-03-03T02:01:34;101854.03;;;6.01;47.32
27304;BME280;14791;52.392;13.092;2023-03-03T02:04:03;101861.90;;;6.04;47.31
27304;BME280;14791;52.392;13.092;2023-03-03T02:06:37;101856.51;;;6.07;47.28
27304;BME280;14791;52.392;13.092;2023-03-03T02:09:20;101857.26;;;6.12;47.22
27304;BME280;14791;52.392;13.092;2023-03-03T02:11:50;101857.70;;;6.13;47.12
27304;BME280;14791;52.392;13.092;2023-03-03T02:14:20;101856.37;;;6.13;46.93
27304;BME280;14791;52.392;13.092;2023-03-03T02:16:50;101856.42;;;6.10;46.80
27304;BME280;14791;52.392;13.092;2023-03-03T02:22:08;101860.09;;;6.06;46.83
27304;BME280;14791;52.392;13.092;2023-03-03T02:24:52;101862.79;;;6.03;47.00
27304;BME280;14791;52.392;13.092;2023-03-03T02:27:21;101869.86;;;6.04;47.08
27304;BME280;14791;52.392;13.092;2023-03-03T02:29:51;101875.13;;;6.06;47.09
27304;BME280;14791;52.392;13.092;2023-03-03T02:32:20;101883.88;;;6.09;47.09
27304;BME280;14791;52.392;13.092;2023-03-03T02:34:51;101876.75;;;6.11;46.97
27304;BME280;14791;52.392;13.092;2023-03-03T02:37:20;101872.28;;;6.13;46.91
27304;BME280;14791;52.392;13.092;2023-03-03T02:39:50;101877.59;;;6.13;46.88
27304;BME280;14791;52.392;13.092;2023-03-03T02:42:24;101879.32;;;6.14;46.95
27304;BME280;14791;52.392;13.092;2023-03-03T02:44:55;101875.31;;;6.16;46.91
27304;BME280;14791;52.392;13.092;2023-03-03T02:47:24;101878.43;;;6.15;46.90
27304;BME280;14791;52.392;13.092;2023-03-03T02:49:53;101878.83;;;6.16;46.85
27304;BME280;14791;52.392;13.092;2023-03-03T02:52:24;101871.80;;;6.15;46.96
27304;BME280;14791;52.392;13.092;2023-03-03T02:54:52;101866.03;;;6.16;47.06
27304;BME280;14791;52.392;13.092;2023-03-03T02:57:22;101868.63;;;6.17;47.17
27304;BME280;14791;52.392;13.092;2023-03-03T03:02:19;101874.63;;;6.26;47.19
27304;BME280;14791;52.392;13.092;2023-03-03T03:04:48;101882.96;;;6.28;47.24
27304;BME280;14791;52.392;13.092;2023-03-03T03:07:19;101874.42;;;6.33;47.23
27304;BME280;14791;52.392;13.092;2023-03-03T03:09:48;101870.81;;;6.36;47.11
27304;BME280;14791;52.392;13.092;2023-03-03T03:12:17;101861.96;;;6.37;47.02
27304;BME280;14791;52.392;13.092;2023-03-03T03:14:49;101867.30;;;6.35;46.95
27304;BME280;14791;52.392;13.092;2023-03-03T03:17:18;101876.21;;;6.33;46.95
27304;BME280;14791;52.392;13.092;2023-03-03T03:19:49;101878.02;;;6.31;46.92
27304;BME280;14791;52.392;13.092;2023-03-03T03:22:18;101882.98;;;6.27;47.04
27304;BME280;14791;52.392;13.092;2023-03-03T03:24:47;101890.55;;;6.26;47.13
27304;BME280;14791;52.392;13.092;2023-03-03T03:27:16;101890.57;;;6.24;47.23
27304;BME280;14791;52.392;13.092;2023-03-03T03:29:46;101889.68;;;6.25;47.29
27304;BME280;14791;52.392;13.092;2023-03-03T03:32:16;101892.27;;;6.27;47.31
27304;BME280;14791;52.392;13.092;2023-03-03T03:34:45;101885.61;;;6.28;47.41
27304;BME280;14791;52.392;13.092;2023-03-03T03:37:16;101894.79;;;6.33;47.44
27304;BME280;14791;52.392;13.092;2023-03-03T03:39:46;101907.97;;;6.36;47.43
27304;BME280;14791;52.392;13.092;2023-03-03T03:42:15;101907.88;;;6.39;47.40
27304;BME280;14791;52.392;13.092;2023-03-03T03:44:44;101900.27;;;6.43;47.35
27304;BME280;14791;52.392;13.092;2023-03-03T03:47:13;101891.81;;;6.45;47.21
27304;BME280;14791;52.392;13.092;2023-03-03T03:49:42;101888.76;;;6.44;47.17
27304;BME280;14791;52.392;13.092;2023-03-03T03:52:12;101900.70;;;6.44;47.20
27304;BME280;14791;52.392;13.092;2023-03-03T03:54:41;101902.92;;;6.43;47.23
27304;BME280;14791;52.392;13.092;2023-03-03T03:57:10;101902.05;;;6.43;47.25
27304;BME280;14791;52.392;13.092;2023-03-03T03:59:39;101902.92;;;6.43;47.33
27304;BME280;14791;52.392;13.092;2023-03-03T04:02:08;101898.94;;;6.43;47.37
27304;BME280;14791;52.392;13.092;2023-03-03T04:04:38;101890.02;;;6.46;47.31
27304;BME280;14791;52.392;13.092;2023-03-03T04:07:07;101882.92;;;6.46;47.30
27304;BME280;14791;52.392;13.092;2023-03-03T04:09:37;101882.92;;;6.46;47.37
27304;BME280;14791;52.392;13.092;2023-03-03T04:12:06;101882.43;;;6.48;47.42
27304;BME280;14791;52.392;13.092;2023-03-03T04:14:35;101873.58;;;6.49;47.38
27304;BME280;14791;52.392;13.092;2023-03-03T04:17:06;101875.73;;;6.51;47.37
27304;BME280;14791;52.392;13.092;2023-03-03T04:19:35;101876.11;;;6.54;47.39
27304;BME280;14791;52.392;13.092;2023-03-03T04:22:05;101871.17;;;6.56;47.38
27304;BME280;14791;52.392;13.092;2023-03-03T04:24:34;101864.94;;;6.57;47.29
27304;BME280;14791;52.392;13.092;2023-03-03T04:27:04;101874.69;;;6.57;47.22
27304;BME280;14791;52.392;13.092;2023-03-03T04:29:35;101865.89;;;6.55;47.13
27304;BME280;14791;52.392;13.092;2023-03-03T04:32:04;101873.98;;;6.50;47.04
27304;BME280;14791;52.392;13.092;2023-03-03T04:34:33;101871.91;;;6.45;47.12
27304;BME280;14791;52.392;13.092;2023-03-03T04:37:02;101866.25;;;6.41;47.28
27304;BME280;14791;52.392;13.092;2023-03-03T04:39:32;101865.94;;;6.37;47.40
27304;BME280;14791;52.392;13.092;2023-03-03T04:42:01;101861.52;;;6.36;47.45
27304;BME280;14791;52.392;13.092;2023-03-03T04:44:31;101858.90;;;6.34;47.43
27304;BME280;14791;52.392;13.092;2023-03-03T04:47:00;101862.97;;;6.31;47.36
27304;BME280;14791;52.392;13.092;2023-03-03T04:49:29;101855.12;;;6.27;47.35
27304;BME280;14791;52.392;13.092;2023-03-03T04:51:59;101853.52;;;6.21;47.30
27304;BME280;14791;52.392;13.092;2023-03-03T04:54:28;101853.63;;;6.16;47.31
27304;BME280;14791;52.392;13.092;2023-03-03T04:56:57;101864.37;;;6.10;47.40
27304;BME280;14791;52.392;13.092;2023-03-03T04:59:26;101865.39;;;6.06;47.57
27304;BME280;14791;52.392;13.092;2023-03-03T05:01:55;101859.25;;;6.04;47.72
27304;BME280;14791;52.392;13.092;2023-03-03T05:04:24;101865.44;;;6.03;47.84
27304;BME280;14791;52.392;13.092;2023-03-03T05:06:53;101876.00;;;6.06;47.90
27304;BME280;14791;52.392;13.092;2023-03-03T05:09:24;101866.66;;;6.08;47.89
27304;BME280;14791;52.392;13.092;2023-03-03T05:11:53;101870.61;;;6.09;47.76
27304;BME280;14791;52.392;13.092;2023-03-03T05:14:22;101863.14;;;6.07;47.75
27304;BME280;14791;52.392;13.092;2023-03-03T05:16:51;101860.11;;;6.05;47.73
27304;BME280;14791;52.392;13.092;2023-03-03T05:19:19;101858.41;;;6.02;47.71
27304;BME280;14791;52.392;13.092;2023-03-03T05:21:48;101858.06;;;5.98;47.68
27304;BME280;14791;52.392;13.092;2023-03-03T05:24:17;101858.60;;;5.94;47.73
27304;BME280;14791;52.392;13.092;2023-03-03T05:26:49;101855.59;;;5.89;47.78
27304;BME280;14791;52.392;13.092;2023-03-03T05:29:18;101853.52;;;5.84;47.86
27304;BME280;14791;52.392;13.092;2023-03-03T05:31:47;101854.92;;;5.81;47.95
27304;BME280;14791;52.392;13.092;2023-03-03T05:34:16;101857.22;;;5.76;47.88
27304;BME280;14791;52.392;13.092;2023-03-03T05:36:45;101850.30;;;5.71;47.86
27304;BME280;14791;52.392;13.092;2023-03-03T05:39:14;101851.72;;;5.66;47.97
27304;BME280;14791;52.392;13.092;2023-03-03T05:41:43;101851.42;;;5.61;48.13
27304;BME280;14791;52.392;13.092;2023-03-03T05:44:12;101860.27;;;5.60;48.25
27304;BME280;14791;52.392;13.092;2023-03-03T05:46:40;101843.90;;;5.60;48.32
27304;BME280;14791;52.392;13.092;2023-03-03T05:49:09;101851.42;;;5.61;48.22
27304;BME280;14791;52.392;13.092;2023-03-03T05:51:38;101860.27;;;5.60;48.29
27304;BME280;14791;52.392;13.092;2023-03-03T05:54:07;101863.38;;;5.59;48.35
27304;BME280;14791;52.392;13.092;2023-03-03T05:56:36;101856.34;;;5.58;48.44
27304;BME280;14791;52.392;13.092;2023-03-03T05:59:05;101867.76;;;5.60;48.51
27304;BME280;14791;52.392;13.092;2023-03-03T06:01:34;101870.82;;;5.63;48.57
27304;BME280;14791;52.392;13.092;2023-03-03T06:04:03;101869.88;;;5.65;48.61
27304;BME280;14791;52.392;13.092;2023-03-03T06:06:32;101875.98;;;5.67;48.68
27304;BME280;14791;52.392;13.092;2023-03-03T06:09:01;101875.02;;;5.71;48.74
27304;BME280;14791;52.392;13.092;2023-03-03T06:11:31;101873.13;;;5.76;48.78
27304;BME280;14791;52.392;13.092;2023-03-03T06:14:00;101874.32;;;5.83;48.82
27304;BME280;14791;52.392;13.092;2023-03-03T06:16:29;101880.38;;;5.88;48.76
27304;BME280;14791;52.392;13.092;2023-03-03T06:18:58;101880.73;;;5.92;48.64
27304;BME280;14791;52.392;13.092;2023-03-03T06:21:28;101882.41;;;5.96;48.55
27304;BME280;14791;52.392;13.092;2023-03-03T06:23:56;101880.20;;;5.97;48.42
27304;BME280;14791;52.392;13.092;2023-03-03T06:26:25;101893.02;;;5.96;48.42
27304;BME280;14791;52.392;13.092;2023-03-03T06:28:54;101891.70;;;5.96;48.40
27304;BME280;14791;52.392;13.092;2023-03-03T06:31:24;101895.67;;;5.96;48.41
27304;BME280;14791;52.392;13.092;2023-03-03T06:33:54;101893.95;;;5.95;48.46
27304;BME280;14791;52.392;13.092;2023-03-03T06:36:23;101903.14;;;5.98;48.49
27304;BME280;14791;52.392;13.092;2023-03-03T06:38:52;101907.09;;;6.00;48.53
27304;BME280;14791;52.392;13.092;2023-03-03T06:41:21;101912.78;;;6.02;48.56
27304;BME280;14791;52.392;13.092;2023-03-03T06:43:50;101907.45;;;6.04;48.61
27304;BME280;14791;52.392;13.092;2023-03-03T06:46:19;101913.55;;;6.07;48.60
27304;BME280;14791;52.392;13.092;2023-03-03T06:48:48;101906.02;;;6.08;48.57
27304;BME280;14791;52.392;13.092;2023-03-03T06:51:26;101912.97;;;6.12;48.53
27304;BME280;14791;52.392;13.092;2023-03-03T06:53:59;101908.98;;;6.12;48.44
27304;BME280;14791;52.392;13.092;2023-03-03T06:56:36;101913.52;;;6.09;48.42
27304;BME280;14791;52.392;13.092;2023-03-03T06:59:00;101918.45;;;6.06;48.46
27304;BME280;14791;52.392;13.092;2023-03-03T07:01:35;101917.60;;;6.04;48.62
27304;BME280;14791;52.392;13.092;2023-03-03T07:04:16;101912.27;;;6.06;48.74
27304;BME280;14791;52.392;13.092;2023-03-03T07:06:45;101920.17;;;6.07;48.79
27304;BME280;14791;52.392;13.092;2023-03-03T07:11:51;101928.31;;;6.17;48.84
27304;BME280;14791;52.392;13.092;2023-03-03T07:14:21;101934.81;;;6.24;48.87
27304;BME280;14791;52.392;13.092;2023-03-03T07:16:55;101939.06;;;6.31;48.88
27304;BME280;14791;52.392;13.092;2023-03-03T07:19:33;101945.04;;;6.39;48.82
27304;BME280;14791;52.392;13.092;2023-03-03T07:22:14;101955.14;;;6.43;48.66
27304;BME280;14791;52.392;13.092;2023-03-03T07:24:50;101951.19;;;6.41;48.43
27304;BME280;14791;52.392;13.092;2023-03-03T07:27:23;101956.61;;;6.36;48.33
27304;BME280;14791;52.392;13.092;2023-03-03T07:29:55;101954.98;;;6.31;48.29
27304;BME280;14791;52.392;13.092;2023-03-03T07:32:36;101953.77;;;6.26;48.31
27304;BME280;14791;52.392;13.092;2023-03-03T07:35:01;101950.36;;;6.21;48.41
27304;BME280;14791;52.392;13.092;2023-03-03T07:37:37;101945.54;;;6.19;48.45
27304;BME280;14791;52.392;13.092;2023-03-03T07:43:12;101945.65;;;6.14;48.49
27304;BME280;14791;52.392;13.092;2023-03-03T07:45:35;101940.50;;;6.08;48.70
27304;BME280;14791;52.392;13.092;2023-03-03T07:48:35;101946.67;;;6.09;48.73
27304;BME280;14791;52.392;13.092;2023-03-03T07:51:25;101947.08;;;6.10;48.69
27304;BME280;14791;52.392;13.092;2023-03-03T07:53:33;101954.72;;;6.06;48.68
27304;BME280;14791;52.392;13.092;2023-03-03T07:56:14;101959.18;;;6.04;48.77
27304;BME280;14791;52.392;13.092;2023-03-03T07:58:42;101964.42;;;6.05;48.95
27304;BME280;14791;52.392;13.092;2023-03-03T08:04:01;101958.16;;;6.09;48.99
27304;BME280;14791;52.392;13.092;2023-03-03T08:06:41;101964.86;;;6.06;48.93
27304;BME280;14791;52.392;13.092;2023-03-03T08:11:50;101971.98;;;6.04;48.95
27304;BME280;14791;52.392;13.092;2023-03-03T08:14:15;101965.34;;;6.04;48.98
27304;BME280;14791;52.392;13.092;2023-03-03T08:16:45;101969.73;;;6.05;49.13
27304;BME280;14791;52.392;13.092;2023-03-03T08:19:16;101966.19;;;6.06;49.26
27304;BME280;14791;52.392;13.092;2023-03-03T08:21:46;101961.64;;;6.11;49.32
27304;BME280;14791;52.392;13.092;2023-03-03T08:24:17;101968.09;;;6.19;49.33
27304;BME280;14791;52.392;13.092;2023-03-03T08:26:45;101968.39;;;6.25;49.34
27304;BME280;14791;52.392;13.092;2023-03-03T08:29:14;101973.56;;;6.31;49.33
27304;BME280;14791;52.392;13.092;2023-03-03T08:31:43;101963.67;;;6.37;49.34
27304;BME280;14791;52.392;13.092;2023-03-03T08:34:12;101966.14;;;6.45;49.30
27304;BME280;14791;52.392;13.092;2023-03-03T08:36:41;101968.21;;;6.50;49.24
27304;BME280;14791;52.392;13.092;2023-03-03T08:39:10;101965.45;;;6.55;49.29
27304;BME280;14791;52.392;13.092;2023-03-03T08:41:39;101960.02;;;6.59;49.23
27304;BME280;14791;52.392;13.092;2023-03-03T08:44:10;101959.47;;;6.63;49.13
27304;BME280;14791;52.392;13.092;2023-03-03T08:46:39;101964.34;;;6.64;49.12
27304;BME280;14791;52.392;13.092;2023-03-03T08:49:08;101958.61;;;6.63;49.11
27304;BME280;14791;52.392;13.092;2023-03-03T08:51:37;101959.44;;;6.65;49.13
27304;BME280;14791;52.392;13.092;2023-03-03T08:54:06;101959.04;;;6.64;49.03
27304;BME280;14791;52.392;13.092;2023-03-03T08:56:35;101955.48;;;6.63;49.02
27304;BME280;14791;52.392;13.092;2023-03-03T08:59:04;101966.57;;;6.63;49.15
27304;BME280;14791;52.392;13.092;2023-03-03T09:01:34;101976.23;;;6.65;49.28
27304;BME280;14791;52.392;13.092;2023-03-03T09:04:03;101968.22;;;6.68;49.34
27304;BME280;14791;52.392;13.092;2023-03-03T09:06:32;101968.50;;;6.74;49.32
27304;BME280;14791;52.392;13.092;2023-03-03T09:09:01;101968.84;;;6.78;49.24
27304;BME280;14791;52.392;13.092;2023-03-03T09:11:32;101968.73;;;6.83;49.13
27304;BME280;14791;52.392;13.092;2023-03-03T09:14:06;101961.53;;;6.86;49.09
27304;BME280;14791;52.392;13.092;2023-03-03T09:16:39;101966.33;;;6.90;49.23
27304;BME280;14791;52.392;13.092;2023-03-03T09:19:29;101966.20;;;6.94;49.27
27304;BME280;14791;52.392;13.092;2023-03-03T09:22:17;101966.95;;;6.99;49.22
27304;BME280;14791;52.392;13.092;2023-03-03T09:24:41;101960.67;;;7.02;49.09
27304;BME280;14791;52.392;13.092;2023-03-03T09:27:14;101968.19;;;7.02;49.02
27304;BME280;14791;52.392;13.092;2023-03-03T09:29:42;101963.70;;;7.05;49.07
27304;BME280;14791;52.392;13.092;2023-03-03T09:32:36;101964.94;;;7.08;49.12
27304;BME280;14791;52.392;13.092;2023-03-03T09:35:33;101960.83;;;7.12;49.11
27304;BME280;14791;52.392;13.092;2023-03-03T09:43:37;101956.09;;;7.23;49.27
27304;BME280;14791;52.392;13.092;2023-03-03T09:46:18;101961.69;;;7.29;49.19
27304;BME280;14791;52.392;13.092;2023-03-03T09:48:57;101960.99;;;7.37;49.11
27304;BME280;14791;52.392;13.092;2023-03-03T09:51:27;101956.88;;;7.42;49.01
27304;BME280;14791;52.392;13.092;2023-03-03T09:53:58;101950.99;;;7.47;48.96
27304;BME280;14791;52.392;13.092;2023-03-03T09:56:46;101960.56;;;7.53;48.96
27304;BME280;14791;52.392;13.092;2023-03-03T09:59:07;101959.03;;;7.59;48.89
27304;BME280;14791;52.392;13.092;2023-03-03T10:02:10;101962.09;;;7.61;48.86
27304;BME280;14791;52.392;13.092;2023-03-03T10:04:56;101960.20;;;7.65;48.98
27304;BME280;14791;52.392;13.092;2023-03-03T10:07:42;101961.42;;;7.68;49.10
27304;BME280;14791;52.392;13.092;2023-03-03T10:10:42;101953.38;;;7.71;48.95
27304;BME280;14791;52.392;13.092;2023-03-03T10:13:30;101952.84;;;7.73;48.94
27304;BME280;14791;52.392;13.092;2023-03-03T10:18:56;101951.34;;;7.79;49.07
27304;BME280;14791;52.392;13.092;2023-03-03T10:21:32;101953.47;;;7.83;49.11
27304;BME280;14791;52.392;13.092;2023-03-03T10:24:14;101958.55;;;7.91;49.02
27304;BME280;14791;52.392;13.092;2023-03-03T10:27:01;101957.43;;;7.98;49.01
27304;BME280;14791;52.392;13.092;2023-03-03T10:29:30;101958.16;;;8.03;48.95
27304;BME280;14791;52.392;13.092;2023-03-03T10:43:51;101947.36;;;8.21;48.90
27304;BME280;14791;52.392;13.092;2023-03-03T10:54:36;101952.75;;;8.33;48.41
27304;BME280;14791;52.392;13.092;2023-03-03T10:57:02;101951.88;;;8.32;48.49
27304;BME280;14791;52.392;13.092;2023-03-03T10:59:52;101949.19;;;8.34;48.52
27304;BME280;14791;52.392;13.092;2023-03-03T11:07:41;101951.36;;;8.49;48.68
27304;BME280;14791;52.392;13.092;2023-03-03T11:10:32;101949.33;;;8.57;48.49
27304;BME280;14791;52.392;13.092;2023-03-03T11:16:14;101939.46;;;8.59;48.35
27304;BME280;14791;52.392;13.092;2023-03-03T11:18:54;101951.05;;;8.58;48.49
27304;BME280;14791;52.392;13.092;2023-03-03T11:21:25;101950.11;;;8.59;48.49
27304;BME280;14791;52.392;13.092;2023-03-03T11:24:18;101950.43;;;8.63;48.41
27304;BME280;14791;52.392;13.092;2023-03-03T11:27:02;101947.26;;;8.65;48.27
27304;BME280;14791;52.392;13.092;2023-03-03T11:30:23;101943.41;;;8.61;48.24
27304;BME280;14791;52.392;13.092;2023-03-03T11:35:03;101944.20;;;8.64;48.50
27304;BME280;14791;52.392;13.092;2023-03-03T11:40:23;101947.84;;;8.73;48.49
27304;BME280;14791;52.392;13.092;2023-03-03T11:45:48;101942.28;;;8.81;48.31
27304;BME280;14791;52.392;13.092;2023-03-03T11:48:38;101937.89;;;8.79;48.40
27304;BME280;14791;52.392;13.092;2023-03-03T11:51:31;101939.97;;;8.84;48.39
27304;BME280;14791;52.392;13.092;2023-03-03T11:54:06;101933.70;;;8.85;48.43
27304;BME280;14791;52.392;13.092;2023-03-03T11:56:40;101934.91;;;8.88;48.46
27304;BME280;14791;52.392;13.092;2023-03-03T12:02:21;101933.33;;;8.96;48.25
27304;BME280;14791;52.392;13.092;2023-03-03T12:04:53;101943.91;;;8.97;48.30
27304;BME280;14791;52.392;13.092;2023-03-03T12:07:50;101930.08;;;8.99;48.34
27304;BME280;14791;52.392;13.092;2023-03-03T12:13:04;101916.23;;;9.01;48.18
27304;BME280;14791;52.392;13.092;2023-03-03T12:15:40;101903.73;;;9.03;48.24
27304;BME280;14791;52.392;13.092;2023-03-03T12:18:15;101909.33;;;9.07;48.18
27304;BME280;14791;52.392;13.092;2023-03-03T12:26:01;101900.90;;;9.08;48.08
27304;BME280;14791;52.392;13.092;2023-03-03T12:28:39;101899.57;;;9.08;48.14
27304;BME280;14791;52.392;13.092;2023-03-03T12:31:28;101899.09;;;9.08;48.19
27304;BME280;14791;52.392;13.092;2023-03-03T12:40:00;101898.50;;;9.12;48.21
27304;BME280;14791;52.392;13.092;2023-03-03T12:47:43;101873.66;;;9.23;48.27
27304;BME280;14791;52.392;13.092;2023-03-03T12:50:35;101866.30;;;9.30;48.22
27304;BME280;14791;52.392;13.092;2023-03-03T12:56:06;101866.86;;;9.38;48.07
27304;BME280;14791;52.392;13.092;2023-03-03T13:01:38;101865.01;;;9.40;48.00
27304;BME280;14791;52.392;13.092;2023-03-03T13:04:10;101860.20;;;9.38;48.04
27304;BME280;14791;52.392;13.092;2023-03-03T13:09:59;101849.98;;;9.49;48.15
27304;BME280;14791;52.392;13.092;2023-03-03T13:12:50;101856.34;;;9.57;48.16
27304;BME280;14791;52.392;13.092;2023-03-03T13:15:26;101852.92;;;9.65;48.10
27304;BME280;14791;52.392;13.092;2023-03-03T13:18:18;101850.46;;;9.71;48.04
27304;BME280;14791;52.392;13.092;2023-03-03T13:20:53;101841.23;;;9.79;47.89
27304;BME280;14791;52.392;13.092;2023-03-03T13:23:33;101847.72;;;9.84;47.80
27304;BME280;14791;52.392;13.092;2023-03-03T13:26:09;101835.95;;;9.88;47.71
27304;BME280;14791;52.392;13.092;2023-03-03T13:34:35;101841.73;;;9.99;47.54
27304;BME280;14791;52.392;13.092;2023-03-03T13:39:42;101832.14;;;10.06;47.26
27304;BME280;14791;52.392;13.092;2023-03-03T13:44:54;101832.59;;;10.05;47.26
27304;BME280;14791;52.392;13.092;2023-03-03T13:47:40;101835.26;;;10.05;47.34
27304;BME280;14791;52.392;13.092;2023-03-03T13:50:32;101831.06;;;10.10;47.37
27304;BME280;14791;52.392;13.092;2023-03-03T13:53:32;101826.48;;;10.13;47.36
27304;BME280;14791;52.392;13.092;2023-03-03T13:56:27;101839.30;;;10.15;47.38
27304;BME280;14791;52.392;13.092;2023-03-03T14:02:07;101816.84;;;10.19;47.47
27304;BME280;14791;52.392;13.092;2023-03-03T14:04:44;101818.52;;;10.22;47.49
27304;BME280;14791;52.392;13.092;2023-03-03T14:10:12;101815.02;;;10.32;47.18
27304;BME280;14791;52.392;13.092;2023-03-03T14:12:56;101806.56;;;10.32;47.18
27304;BME280;14791;52.392;13.092;2023-03-03T14:15:37;101805.61;;;10.33;47.11
27304;BME280;14791;52.392;13.092;2023-03-03T14:18:41;101807.42;;;10.33;47.04
27304;BME280;14791;52.392;13.092;2023-03-03T14:21:08;101795.87;;;10.32;46.94
27304;BME280;14791;52.392;13.092;2023-03-03T14:23:50;101805.81;;;10.29;47.08
27304;BME280;14791;52.392;13.092;2023-03-03T14:26:14;101789.73;;;10.30;47.09
27304;BME280;14791;52.392;13.092;2023-03-03T14:28:48;101793.65;;;10.32;47.03
27304;BME280;14791;52.392;13.092;2023-03-03T14:31:28;101793.13;;;10.34;47.04
27304;BME280;14791;52.392;13.092;2023-03-03T14:34:00;101790.39;;;10.35;47.09
27304;BME280;14791;52.392;13.092;2023-03-03T14:36:38;101786.24;;;10.38;47.22
27304;BME280;14791;52.392;13.092;2023-03-03T14:39:40;101778.01;;;10.53;47.37
27304;BME280;14791;52.392;13.092;2023-03-03T14:42:13;101778.01;;;10.53;47.37
27304;BME280;14791;52.392;13.092;2023-03-03T14:44:49;101781.28;;;10.60;47.34
27304;BME280;14791;52.392;13.092;2023-03-03T14:47:30;101775.58;;;10.68;47.23
27304;BME280;14791;52.392;13.092;2023-03-03T14:49:56;101769.94;;;10.84;47.27
27304;BME280;14791;52.392;13.092;2023-03-03T14:52:29;101769.94;;;10.84;47.27
27304;BME280;14791;52.392;13.092;2023-03-03T14:55:01;101748.65;;;11.01;47.12
27304;BME280;14791;52.392;13.092;2023-03-03T14:57:37;101748.65;;;11.01;47.12
27304;BME280;14791;52.392;13.092;2023-03-03T15:03:16;101753.73;;;11.16;46.49
27304;BME280;14791;52.392;13.092;2023-03-03T15:05:35;101758.13;;;11.17;46.35
27304;BME280;14791;52.392;13.092;2023-03-03T15:10:38;101746.50;;;11.18;46.46
27304;BME280;14791;52.392;13.092;2023-03-03T15:16:01;101742.08;;;11.17;46.18
27304;BME280;14791;52.392;13.092;2023-03-03T15:18:32;101745.70;;;11.16;46.17
27304;BME280;14791;52.392;13.092;2023-03-03T15:21:12;101749.78;;;11.15;46.12
27304;BME280;14791;52.392;13.092;2023-03-03T15:29:23;101736.30;;;11.07;46.28
27304;BME280;14791;52.392;13.092;2023-03-03T15:34:56;101730.96;;;11.07;46.27
27304;BME280;14791;52.392;13.092;2023-03-03T15:40:53;101725.23;;;11.06;46.22
27304;BME280;14791;52.392;13.092;2023-03-03T15:43:31;101724.17;;;11.00;46.26